Time;durP1;ratioP1;P1;durP2;ratioP2;P2;SDS_P1;SDS_P2;PMS_P1;PMS_P2;Temp;Humidity;BMP_temperature;BMP_pressure;BME280_temperature;BME280_humidity;BME280_pressure;Samples;Min_cycle;Max_cycle;Signal;HPM_P1;HPM_P2
2023/07/29 00:01:58;;;;;;;4.40;3.30;;;;;;;-148.88;100.00;-17125.47;5015313;28;20034;-71
2023/07/29 00:04:23;;;;;;;4.53;3.30;;;;;;;-148.88;100.00;-17125.47;5014074;28;20034;-71
2023/07/29 00:06:50;;;;;;;4.00;2.90;;;;;;;-148.88;100.00;-17125.47;5015443;28;20049;-71
2023/07/29 00:09:15;;;;;;;3.92;2.40;;;;;;;-148.88;100.00;-17125.47;5015353;28;20028;-71
2023/07/29 00:11:40;;;;;;;4.28;2.83;;;;;;;-148.88;100.00;-17125.47;5015261;28;20059;-70
2023/07/29 00:14:06;;;;;;;4.05;2.25;;;;;;;-148.88;100.00;-17125.47;5015184;28;20473;-70
2023/07/29 00:16:31;;;;;;;4.57;2.40;;;;;;;-148.88;100.00;-17125.47;5015326;28;20396;-70
2023/07/29 00:18:56;;;;;;;6.15;2.75;;;;;;;-148.88;100.00;-17125.47;5013698;28;20113;-71
2023/07/29 00:21:22;;;;;;;5.40;2.33;;;;;;;-148.88;100.00;-17125.47;5015299;28;20032;-72
2023/07/29 00:23:47;;;;;;;3.40;2.50;;;;;;;-148.88;100.00;-17125.47;5014980;28;20026;-71
2023/07/29 00:26:13;;;;;;;5.22;2.80;;;;;;;-148.88;100.00;-17125.47;5015187;28;20084;-70
2023/07/29 00:28:38;;;;;;;3.60;2.58;;;;;;;-148.88;100.00;-17125.47;5014995;28;20018;-70
2023/07/29 00:31:03;;;;;;;3.38;2.63;;;;;;;-148.88;100.00;-17125.47;5014842;28;20017;-71
2023/07/29 00:33:29;;;;;;;4.32;2.70;;;;;;;-148.88;100.00;-17125.47;5014718;28;20068;-70
2023/07/29 00:35:54;;;;;;;4.07;3.00;;;;;;;-148.88;100.00;-17125.47;5013477;28;20022;-70
2023/07/29 00:38:19;;;;;;;4.68;3.08;;;;;;;-148.88;100.00;-17125.47;5014547;28;20026;-70
2023/07/29 00:40:45;;;;;;;3.95;3.20;;;;;;;-148.88;100.00;-17125.47;5014792;28;20025;-71
2023/07/29 00:43:10;;;;;;;5.65;3.10;;;;;;;-148.88;100.00;-17125.47;5014880;28;20109;-70
2023/07/29 00:45:36;;;;;;;5.07;3.30;;;;;;;-148.88;100.00;-17125.47;5014476;28;20037;-70
2023/07/29 00:48:02;;;;;;;5.05;3.42;;;;;;;-148.88;100.00;-17125.47;5014461;28;20025;-70
2023/07/29 00:50:30;;;;;;;3.65;3.25;;;;;;;-148.88;100.00;-17125.47;5014481;28;20392;-70
2023/07/29 00:52:56;;;;;;;4.18;3.13;;;;;;;-148.88;100.00;-17125.47;5014628;28;20465;-71
2023/07/29 00:55:22;;;;;;;3.92;3.05;;;;;;;-148.88;100.00;-17125.47;5014427;28;20032;-72
2023/07/29 00:57:51;;;;;;;4.18;3.00;;;;;;;-148.88;100.00;-17125.47;5014269;28;20389;-72
2023/07/29 01:00:19;;;;;;;3.53;2.80;;;;;;;-148.88;100.00;-17125.47;5014304;28;20083;-72
2023/07/29 01:02:44;;;;;;;3.95;2.50;;;;;;;-148.88;100.00;-17125.47;5014242;28;20522;-71
2023/07/29 01:05:13;;;;;;;4.10;3.00;;;;;;;-148.88;100.00;-17125.47;5014229;28;20030;-71
2023/07/29 01:07:55;;;;;;;4.07;2.88;;;;;;;-148.88;100.00;-17125.47;5014080;28;20028;-70
2023/07/29 01:10:35;;;;;;;3.45;2.63;;;;;;;-148.88;100.00;-17125.47;5014185;28;20157;-71
2023/07/29 01:13:08;;;;;;;3.85;2.65;;;;;;;-148.88;100.00;-17125.47;5014117;28;20034;-72
2023/07/29 01:15:54;;;;;;;3.53;2.70;;;;;;;-148.88;100.00;-17125.47;5014119;28;20493;-71
2023/07/29 01:18:29;;;;;;;3.80;2.58;;;;;;;-148.88;100.00;-17125.47;5013848;28;20401;-72
2023/07/29 01:20:59;;;;;;;4.72;2.40;;;;;;;-148.88;100.00;-17125.47;5014009;28;20071;-72
2023/07/29 01:23:26;;;;;;;3.78;2.53;;;;;;;-148.88;100.00;-17125.47;5013936;28;20026;-71
2023/07/29 01:25:51;;;;;;;4.75;2.65;;;;;;;-148.88;100.00;-17125.47;5013850;28;20100;-72
2023/07/29 01:28:17;;;;;;;4.55;2.70;;;;;;;-148.88;100.00;-17125.47;5013806;28;20050;-71
2023/07/29 01:30:44;;;;;;;5.38;3.08;;;;;;;-148.88;100.00;-17125.47;5014128;28;20115;-72
2023/07/29 01:33:25;;;;;;;3.97;2.85;;;;;;;-148.88;100.00;-17125.47;5013696;28;20030;-73
2023/07/29 01:35:57;;;;;;;4.72;2.63;;;;;;;-148.88;100.00;-17125.47;5013695;28;20025;-69
2023/07/29 01:38:31;;;;;;;3.05;2.53;;;;;;;-148.88;100.00;-17125.47;5013575;28;20053;-69
2023/07/29 01:41:01;;;;;;;3.65;2.50;;;;;;;-148.88;100.00;-17125.47;5013512;28;20480;-71
2023/07/29 01:43:28;;;;;;;4.38;3.00;;;;;;;-148.88;100.00;-17125.47;5013604;28;20026;-70
2023/07/29 01:45:53;;;;;;;6.03;2.70;;;;;;;-148.88;100.00;-17125.47;5013558;28;20026;-71
2023/07/29 01:48:19;;;;;;;3.83;2.65;;;;;;;-148.88;100.00;-17125.47;5013463;28;20033;-71
2023/07/29 01:50:44;;;;;;;3.40;2.95;;;;;;;-148.88;100.00;-17125.47;5013473;28;20029;-71
2023/07/29 01:53:09;;;;;;;4.05;2.67;;;;;;;-148.88;100.00;-17125.47;5013384;28;20033;-72
2023/07/29 01:55:35;;;;;;;3.75;2.97;;;;;;;-148.88;100.00;-17125.47;5013762;28;20108;-71
2023/07/29 01:58:00;;;;;;;3.65;2.40;;;;;;;-148.88;100.00;-17125.47;5013209;28;20022;-71
2023/07/29 02:00:25;;;;;;;3.35;2.75;;;;;;;-148.88;100.00;-17125.47;5013661;28;20033;-71
2023/07/29 02:02:51;;;;;;;4.13;3.10;;;;;;;-148.88;100.00;-17125.47;5012103;28;20022;-71
2023/07/29 02:05:16;;;;;;;5.93;3.10;;;;;;;-148.88;100.00;-17125.47;5013366;28;20033;-71
2023/07/29 02:07:42;;;;;;;3.42;3.05;;;;;;;-148.88;100.00;-17125.47;5013534;28;20022;-72
2023/07/29 02:10:08;;;;;;;3.60;3.20;;;;;;;-148.88;100.00;-17125.47;5012040;28;20022;-71
2023/07/29 02:12:33;;;;;;;4.80;3.58;;;;;;;-148.88;100.00;-17125.47;5013299;28;20026;-71
2023/07/29 02:14:58;;;;;;;4.35;3.25;;;;;;;-148.88;100.00;-17125.47;5013268;28;20028;-71
2023/07/29 02:17:24;;;;;;;4.03;3.25;;;;;;;-148.88;100.00;-17125.47;5013068;28;20370;-71
2023/07/29 02:19:49;;;;;;;5.32;3.13;;;;;;;-148.88;100.00;-17125.47;5013219;28;20029;-71
2023/07/29 02:22:16;;;;;;;8.20;3.65;;;;;;;-148.88;100.00;-17125.47;5013156;28;20112;-70
2023/07/29 02:24:42;;;;;;;5.13;3.67;;;;;;;-148.88;100.00;-17125.47;5013116;28;20030;-70
2023/07/29 02:27:07;;;;;;;3.80;3.40;;;;;;;-148.88;100.00;-17125.47;5011710;28;20084;-70
2023/07/29 02:29:33;;;;;;;4.00;3.35;;;;;;;-148.88;100.00;-17125.47;5013069;28;20032;-71
2023/07/29 02:31:59;;;;;;;5.95;3.60;;;;;;;-148.88;100.00;-17125.47;5013057;28;20033;-71
2023/07/29 02:34:24;;;;;;;4.95;3.63;;;;;;;-148.88;100.00;-17125.47;5013064;28;20026;-71
2023/07/29 02:36:50;;;;;;;4.43;3.47;;;;;;;-148.88;100.00;-17125.47;5012855;28;20029;-70
2023/07/29 02:39:15;;;;;;;4.78;3.40;;;;;;;-148.88;100.00;-17125.47;5013042;28;20055;-70
2023/07/29 02:41:40;;;;;;;6.32;4.00;;;;;;;-148.88;100.00;-17125.47;5013023;28;20492;-70
2023/07/29 02:44:06;;;;;;;5.38;3.72;;;;;;;-148.88;100.00;-17125.47;5012950;28;20396;-71
2023/07/29 02:46:31;;;;;;;5.97;4.05;;;;;;;-148.88;100.00;-17125.47;5075711;22;20104;-71
2023/07/29 02:48:57;;;;;;;5.05;4.18;;;;;;;-148.88;100.00;-17125.47;5012856;28;20018;-72
2023/07/29 02:51:22;;;;;;;5.55;4.22;;;;;;;-148.88;100.00;-17125.47;5012865;28;20030;-71
2023/07/29 02:53:48;;;;;;;6.43;4.47;;;;;;;-148.88;100.00;-17125.47;5016369;28;20519;-70
2023/07/29 02:56:13;;;;;;;5.75;4.15;;;;;;;-148.88;100.00;-17125.47;5015368;28;20377;-71
2023/07/29 02:58:39;;;;;;;5.15;4.00;;;;;;;-148.88;100.00;-17125.47;5047583;22;20091;-82
2023/07/29 03:01:05;;;;;;;5.28;4.47;;;;;;;-148.88;100.00;-17125.47;5018276;28;20075;-82
2023/07/29 03:03:31;;;;;;;5.65;4.82;;;;;;;-148.88;100.00;-17125.47;5016891;28;20028;-84
2023/07/29 03:06:08;;;;;;;5.97;4.63;;;;;;;-148.88;100.00;-17125.47;5016272;28;20026;-83
2023/07/29 03:08:35;;;;;;;5.38;4.53;;;;;;;-148.88;100.00;-17125.47;5017231;28;20101;-81
2023/07/29 03:11:07;;;;;;;6.50;4.55;;;;;;;-148.88;100.00;-17125.47;5016806;28;20040;-82
2023/07/29 03:13:32;;;;;;;6.25;4.45;;;;;;;-148.88;100.00;-17125.47;5017001;28;20018;-82
2023/07/29 03:16:12;;;;;;;5.43;4.80;;;;;;;-148.88;100.00;-17125.47;5017309;28;20052;-83
2023/07/29 03:18:38;;;;;;;7.32;4.43;;;;;;;-148.88;100.00;-17125.47;5015885;28;20530;-83
2023/07/29 03:21:03;;;;;;;6.32;4.55;;;;;;;-148.88;100.00;-17125.47;5016464;28;20021;-83
2023/07/29 03:23:30;;;;;;;7.70;5.10;;;;;;;-148.88;100.00;-17125.47;5026790;28;20030;-83
2023/07/29 03:25:58;;;;;;;7.28;4.63;;;;;;;-148.88;100.00;-17125.47;5018631;28;20025;-82
2023/07/29 03:28:28;;;;;;;5.80;4.68;;;;;;;-148.88;100.00;-17125.47;5017327;28;20086;-83
2023/07/29 03:30:54;;;;;;;5.72;5.05;;;;;;;-148.88;100.00;-17125.47;5016672;28;20057;-82
2023/07/29 03:33:19;;;;;;;5.28;4.53;;;;;;;-148.88;100.00;-17125.47;5018024;28;20026;-82
2023/07/29 03:35:45;;;;;;;5.32;4.82;;;;;;;-148.88;100.00;-17125.47;5018474;28;20022;-83
2023/07/29 03:38:11;;;;;;;6.35;4.78;;;;;;;-148.88;100.00;-17125.47;5025544;28;20030;-83
2023/07/29 03:40:38;;;;;;;6.13;4.93;;;;;;;-148.88;100.00;-17125.47;5025582;28;20121;-84
2023/07/29 03:43:03;;;;;;;4.93;4.43;;;;;;;-148.88;100.00;-17125.47;5024311;28;20029;-84
2023/07/29 03:45:29;;;;;;;5.93;5.05;;;;;;;-148.88;100.00;-17125.47;5025569;28;20025;-83
2023/07/29 03:47:55;;;;;;;5.32;4.82;;;;;;;-148.88;100.00;-17125.47;5024321;28;20049;-83
2023/07/29 03:50:20;;;;;;;4.68;4.18;;;;;;;-148.88;100.00;-17125.47;5024628;28;20022;-84
2023/07/29 03:52:46;;;;;;;7.18;5.10;;;;;;;-148.88;100.00;-17125.47;5023734;28;20028;-83
2023/07/29 03:55:11;;;;;;;5.45;4.95;;;;;;;-148.88;100.00;-17125.47;5025963;28;20030;-84
2023/07/29 03:57:37;;;;;;;6.95;5.40;;;;;;;-148.88;100.00;-17125.47;5016332;28;20481;-83
2023/07/29 04:00:03;;;;;;;5.93;5.28;;;;;;;-148.88;100.00;-17125.47;5019211;28;20475;-83
2023/07/29 04:02:28;;;;;;;5.47;4.97;;;;;;;-148.88;100.00;-17125.47;5020489;28;20026;-83
2023/07/29 04:04:54;;;;;;;5.72;5.05;;;;;;;-148.88;100.00;-17125.47;5020630;28;20175;-83
2023/07/29 04:07:19;;;;;;;5.72;5.05;;;;;;;-148.88;100.00;-17125.47;5021060;28;20026;-83
2023/07/29 04:09:44;;;;;;;6.15;4.80;;;;;;;-148.88;100.00;-17125.47;5020748;28;20033;-82
2023/07/29 04:12:10;;;;;;;8.77;5.25;;;;;;;-148.88;100.00;-17125.47;5022957;28;20022;-83
2023/07/29 04:14:35;;;;;;;5.13;4.50;;;;;;;-148.88;100.00;-17125.47;5024058;28;20036;-83
2023/07/29 04:17:01;;;;;;;7.75;5.85;;;;;;;-148.88;100.00;-17125.47;5023313;28;20090;-83
2023/07/29 04:19:26;;;;;;;5.28;4.60;;;;;;;-148.88;100.00;-17125.47;5025542;28;20025;-82
2023/07/29 04:21:51;;;;;;;7.18;4.68;;;;;;;-148.88;100.00;-17125.47;5029353;28;20060;-85
2023/07/29 04:24:17;;;;;;;5.70;5.10;;;;;;;-148.88;100.00;-17125.47;5026083;28;20018;-85
2023/07/29 04:26:42;;;;;;;6.53;5.43;;;;;;;-148.88;100.00;-17125.47;5024107;28;20021;-84
2023/07/29 04:29:07;;;;;;;6.22;5.50;;;;;;;-148.88;100.00;-17125.47;5024418;28;20044;-84
2023/07/29 04:31:33;;;;;;;5.93;4.82;;;;;;;-148.88;100.00;-17125.47;5025912;28;20057;-85
2023/07/29 04:33:58;;;;;;;8.52;4.88;;;;;;;-148.88;100.00;-17125.47;5020819;28;20500;-84
2023/07/29 04:36:24;;;;;;;6.00;5.40;;;;;;;-148.88;100.00;-17125.47;5016624;28;20038;-83
2023/07/29 04:38:49;;;;;;;5.40;4.82;;;;;;;-148.88;100.00;-17125.47;5017680;28;20022;-84
2023/07/29 04:41:14;;;;;;;5.97;4.78;;;;;;;-148.88;100.00;-17125.47;5018899;28;20034;-84
2023/07/29 04:43:39;;;;;;;7.35;4.82;;;;;;;-148.88;100.00;-17125.47;5024401;28;20034;-84
2023/07/29 04:46:08;;;;;;;5.82;4.68;;;;;;;-148.88;100.00;-17125.47;5022372;28;20036;-85
2023/07/29 04:48:33;;;;;;;4.95;4.40;;;;;;;-148.88;100.00;-17125.47;5023902;28;20045;-83
2023/07/29 04:50:59;;;;;;;5.20;4.60;;;;;;;-148.88;100.00;-17125.47;5025713;28;20053;-85
2023/07/29 04:53:24;;;;;;;4.93;4.28;;;;;;;-148.88;100.00;-17125.47;5022758;28;20108;-84
2023/07/29 04:55:49;;;;;;;4.88;4.38;;;;;;;-148.88;100.00;-17125.47;5023986;28;20026;-84
2023/07/29 04:58:15;;;;;;;4.53;3.83;;;;;;;-148.88;100.00;-17125.47;5021471;28;20041;-84
2023/07/29 05:00:40;;;;;;;5.15;4.65;;;;;;;-148.88;100.00;-17125.47;5021548;28;20029;-84
2023/07/29 05:03:06;;;;;;;4.63;4.22;;;;;;;-148.88;100.00;-17125.47;5023067;28;20018;-84
2023/07/29 05:05:32;;;;;;;5.47;4.70;;;;;;;-148.88;100.00;-17125.47;5022015;28;20026;-83
2023/07/29 05:07:57;;;;;;;5.65;4.80;;;;;;;-148.88;100.00;-17125.47;5024634;28;20476;-84
2023/07/29 05:10:22;;;;;;;5.30;4.50;;;;;;;-148.88;100.00;-17125.47;5022869;28;20048;-84
2023/07/29 05:12:48;;;;;;;4.47;4.07;;;;;;;-148.88;100.00;-17125.47;5016774;28;20025;-81
2023/07/29 05:15:14;;;;;;;4.47;4.07;;;;;;;-148.88;100.00;-17125.47;5015496;28;20443;-84
2023/07/29 05:17:39;;;;;;;4.78;4.13;;;;;;;-148.88;100.00;-17125.47;5017984;28;20029;-83
2023/07/29 05:20:05;;;;;;;5.75;4.50;;;;;;;-148.88;100.00;-17125.47;5022076;28;20029;-83
2023/07/29 05:22:30;;;;;;;5.93;4.65;;;;;;;-148.88;100.00;-17125.47;5022240;28;20029;-83
2023/07/29 05:24:56;;;;;;;5.57;4.50;;;;;;;-148.88;100.00;-17125.47;5025567;28;20480;-83
2023/07/29 05:27:21;;;;;;;6.07;4.78;;;;;;;-148.88;100.00;-17125.47;5027970;28;20104;-84
2023/07/29 05:29:46;;;;;;;6.65;4.90;;;;;;;-148.88;100.00;-17125.47;5026937;28;20057;-83
2023/07/29 05:32:15;;;;;;;4.47;4.07;;;;;;;-148.88;100.00;-17125.47;5028445;28;20025;-83
2023/07/29 05:34:40;;;;;;;4.85;3.95;;;;;;;-148.88;100.00;-17125.47;5025430;28;20018;-86
2023/07/29 05:37:05;;;;;;;4.90;3.70;;;;;;;-148.88;100.00;-17125.47;5025089;28;20022;-84
2023/07/29 05:39:32;;;;;;;6.47;4.30;;;;;;;-148.88;100.00;-17125.47;5027353;28;20047;-84
2023/07/29 05:41:57;;;;;;;6.38;4.03;;;;;;;-148.88;100.00;-17125.47;5027342;28;20110;-84
2023/07/29 05:44:23;;;;;;;6.03;4.10;;;;;;;-148.88;100.00;-17125.47;5026403;28;20025;-83
2023/07/29 05:46:48;;;;;;;4.72;3.72;;;;;;;-148.88;100.00;-17125.47;5027500;28;20093;-83
2023/07/29 05:49:13;;;;;;;5.53;4.40;;;;;;;-148.88;100.00;-17125.47;5022769;28;20028;-83
2023/07/29 05:51:39;;;;;;;4.72;4.30;;;;;;;-148.88;100.00;-17125.47;5017343;28;20079;-83
2023/07/29 05:54:04;;;;;;;6.50;4.90;;;;;;;-148.88;100.00;-17125.47;5020995;28;20033;-83
2023/07/29 05:56:31;;;;;;;6.57;5.93;;;;;;;-148.88;100.00;-17125.47;5022817;28;20029;-84
2023/07/29 05:58:56;;;;;;;7.43;6.68;;;;;;;-148.88;100.00;-17125.47;5023812;28;20034;-83
2023/07/29 06:01:22;;;;;;;8.52;7.22;;;;;;;-148.88;100.00;-17125.47;5023749;28;20036;-84
2023/07/29 06:03:47;;;;;;;8.48;7.55;;;;;;;-148.88;100.00;-17125.47;5024102;28;20026;-82
2023/07/29 06:06:13;;;;;;;9.77;7.57;;;;;;;-148.88;100.00;-17125.47;5025548;28;20037;-84
2023/07/29 06:08:38;;;;;;;8.05;7.25;;;;;;;-148.88;100.00;-17125.47;5026502;28;20021;-84
2023/07/29 06:11:06;;;;;;;8.57;7.70;;;;;;;-148.88;100.00;-17125.47;5027079;28;20041;-84
2023/07/29 06:13:31;;;;;;;10.50;9.25;;;;;;;-148.88;100.00;-17125.47;5026165;28;20026;-84
2023/07/29 06:15:57;;;;;;;10.30;9.30;;;;;;;-148.88;100.00;-17125.47;5025992;28;20040;-83
2023/07/29 06:18:23;;;;;;;9.15;8.25;;;;;;;-148.88;100.00;-17125.47;5025018;28;20037;-84
2023/07/29 06:20:48;;;;;;;8.90;8.00;;;;;;;-148.88;100.00;-17125.47;5026138;28;20064;-84
2023/07/29 06:23:16;;;;;;;8.73;7.50;;;;;;;-148.88;100.00;-17125.47;5026507;28;20026;-85
2023/07/29 06:25:41;;;;;;;9.82;7.82;;;;;;;-148.88;100.00;-17125.47;5025587;28;20026;-84
2023/07/29 06:28:06;;;;;;;11.40;8.63;;;;;;;-148.88;100.00;-17125.47;5021234;28;20104;-83
2023/07/29 06:30:32;;;;;;;12.20;9.68;;;;;;;-148.88;100.00;-17125.47;5025552;28;20060;-84
2023/07/29 06:32:57;;;;;;;13.05;10.88;;;;;;;-148.88;100.00;-17125.47;5027724;28;20018;-84
2023/07/29 06:35:23;;;;;;;15.27;12.77;;;;;;;-148.88;100.00;-17125.47;5028613;28;20018;-84
2023/07/29 06:37:49;;;;;;;16.23;12.18;;;;;;;-148.88;100.00;-17125.47;5028838;28;20018;-85
2023/07/29 06:40:14;;;;;;;14.30;12.20;;;;;;;-148.88;100.00;-17125.47;5018525;28;20381;-85
2023/07/29 06:42:40;;;;;;;13.38;12.05;;;;;;;-148.88;100.00;-17125.47;5016811;28;20117;-86
2023/07/29 06:45:06;;;;;;;14.70;11.93;;;;;;;-148.88;100.00;-17125.47;5019187;28;20393;-86
2023/07/29 06:47:31;;;;;;;15.15;12.45;;;;;;;-148.88;100.00;-17125.47;5023622;28;20067;-85
2023/07/29 06:49:56;;;;;;;15.65;13.27;;;;;;;-148.88;100.00;-17125.47;5029515;28;20029;-85
2023/07/29 06:52:22;;;;;;;15.40;13.00;;;;;;;-148.88;100.00;-17125.47;5027853;28;20044;-85
2023/07/29 06:54:47;;;;;;;13.80;12.30;;;;;;;-148.88;100.00;-17125.47;5029129;28;20030;-84
2023/07/29 06:57:12;;;;;;;15.93;13.63;;;;;;;-148.88;100.00;-17125.47;5027296;28;20026;-84
2023/07/29 06:59:38;;;;;;;17.35;15.50;;;;;;;-148.88;100.00;-17125.47;5027195;28;20025;-84
2023/07/29 07:02:03;;;;;;;17.55;15.65;;;;;;;-148.88;100.00;-17125.47;5028322;28;20468;-83
2023/07/29 07:04:29;;;;;;;18.67;16.38;;;;;;;-148.88;100.00;-17125.47;5023313;28;20488;-85
2023/07/29 07:06:54;;;;;;;16.92;15.13;;;;;;;-148.88;100.00;-17125.47;5019891;28;20061;-83
2023/07/29 07:09:20;;;;;;;17.23;15.52;;;;;;;-148.88;100.00;-17125.47;5022990;28;20014;-83
2023/07/29 07:11:45;;;;;;;18.85;15.95;;;;;;;-148.88;100.00;-17125.47;5023933;28;20025;-83
2023/07/29 07:14:10;;;;;;;18.45;15.57;;;;;;;-148.88;100.00;-17125.47;5025908;28;20053;-83
2023/07/29 07:16:36;;;;;;;17.05;15.25;;;;;;;-148.88;100.00;-17125.47;5026552;28;20033;-83
2023/07/29 07:19:02;;;;;;;15.95;13.93;;;;;;;-148.88;100.00;-17125.47;5025113;28;20520;-82
2023/07/29 07:21:28;;;;;;;17.67;15.63;;;;;;;-148.88;100.00;-17125.47;5026547;28;20500;-83
2023/07/29 07:23:53;;;;;;;16.77;15.00;;;;;;;-148.88;100.00;-17125.47;5026388;28;20026;-86
2023/07/29 07:26:18;;;;;;;19.42;15.07;;;;;;;-148.88;100.00;-17125.47;5026990;28;20034;-83
2023/07/29 07:28:44;;;;;;;15.88;14.10;;;;;;;-148.88;100.00;-17125.47;5028693;28;20037;-84
2023/07/29 07:31:09;;;;;;;17.85;14.30;;;;;;;-148.88;100.00;-17125.47;5030016;28;20448;-85
2023/07/29 07:33:35;;;;;;;16.40;14.70;;;;;;;-148.88;100.00;-17125.47;5030264;28;20083;-85
2023/07/29 07:36:00;;;;;;;16.08;14.38;;;;;;;-148.88;100.00;-17125.47;5028950;28;20034;-86
2023/07/29 07:38:25;;;;;;;13.50;12.15;;;;;;;-148.88;100.00;-17125.47;5028040;28;20030;-85
2023/07/29 07:40:55;;;;;;;14.10;12.68;;;;;;;-148.88;100.00;-17125.47;5027027;28;20025;-84
2023/07/29 07:43:23;;;;;;;12.85;11.55;;;;;;;-148.88;100.00;-17125.47;5019234;28;20025;-84
2023/07/29 07:45:49;;;;;;;12.85;11.50;;;;;;;-148.88;100.00;-17125.47;5022807;28;20049;-83
2023/07/29 07:48:16;;;;;;;12.57;11.27;;;;;;;-148.88;100.00;-17125.47;5022768;28;20033;-84
2023/07/29 07:50:42;;;;;;;10.90;9.88;;;;;;;-148.88;100.00;-17125.47;5023342;28;20017;-85
2023/07/29 07:53:07;;;;;;;10.48;9.48;;;;;;;-148.88;100.00;-17125.47;5026703;28;20050;-85
2023/07/29 07:55:39;;;;;;;11.43;9.55;;;;;;;-148.88;100.00;-17125.47;5026438;28;20049;-85
2023/07/29 07:58:04;;;;;;;8.82;8.02;;;;;;;-148.88;100.00;-17125.47;5025662;28;20038;-84
2023/07/29 08:00:29;;;;;;;9.65;7.28;;;;;;;-148.88;100.00;-17125.47;5028340;28;20396;-86
2023/07/29 08:02:55;;;;;;;7.20;6.50;;;;;;;-148.88;100.00;-17125.47;5028243;28;20392;-84
2023/07/29 08:05:28;;;;;;;7.13;6.20;;;;;;;-148.88;100.00;-17125.47;5026727;28;20079;-86
2023/07/29 08:08:34;;;;;;;6.15;5.53;;;;;;;-148.88;100.00;-17125.47;5027385;28;20022;-85
2023/07/29 08:11:32;;;;;;;6.97;6.00;;;;;;;-148.88;100.00;-17125.47;5027543;28;20338;-85
2023/07/29 08:14:01;;;;;;;5.05;4.55;;;;;;;-148.88;100.00;-17125.47;5005495;28;20125;-84
2023/07/29 08:16:26;;;;;;;7.25;5.00;;;;;;;-148.88;100.00;-17125.47;5037873;28;20014;-83
2023/07/29 08:19:09;;;;;;;6.07;4.78;;;;;;;-148.88;100.00;-17125.47;5037406;28;20028;-83
2023/07/29 08:21:38;;;;;;;5.70;4.43;;;;;;;-148.88;100.00;-17125.47;5020758;28;20057;-84
2023/07/29 08:24:11;;;;;;;5.05;4.55;;;;;;;-148.88;100.00;-17125.47;5029083;28;20044;-85
2023/07/29 08:26:40;;;;;;;4.78;4.10;;;;;;;-148.88;100.00;-17125.47;5022399;28;20425;-85
2023/07/29 08:32:38;;;;;;;8.48;3.30;;;;;;;-148.88;100.00;-17125.47;5027456;28;20084;-84
2023/07/29 08:35:04;;;;;;;4.13;3.17;;;;;;;-148.88;100.00;-17125.47;5025217;28;20056;-84
2023/07/29 08:37:31;;;;;;;4.57;3.30;;;;;;;-148.88;100.00;-17125.47;5025652;28;20473;-85
2023/07/29 08:39:56;;;;;;;3.67;2.75;;;;;;;-148.88;99.29;-17125.47;5025955;28;20033;-83
2023/07/29 08:42:34;;;;;;;5.32;2.95;;;;;;;-148.88;99.59;-17125.47;5024742;28;20447;-83
2023/07/29 08:45:11;;;;;;;4.90;3.03;;;;;;;-148.88;99.10;-17125.47;5024143;28;20036;-85
2023/07/29 08:47:37;;;;;;;5.60;3.25;;;;;;;-148.88;99.88;-17125.47;5023339;28;20109;-84
2023/07/29 08:50:03;;;;;;;5.10;3.20;;;;;;;-148.88;100.00;-17125.47;5023004;28;20025;-85
2023/07/29 08:52:32;;;;;;;3.78;2.17;;;;;;;-148.88;97.15;-17125.47;5022548;28;20021;-84
2023/07/29 08:55:01;;;;;;;2.97;1.85;;;;;;;-148.88;94.82;-17125.47;5022357;28;20031;-84
2023/07/29 08:57:30;;;;;;;3.25;1.70;;;;;;;-148.88;93.54;-17125.47;5018926;28;20026;-83
2023/07/29 08:59:56;;;;;;;2.47;1.90;;;;;;;-148.88;94.51;-17125.47;5027493;22;20429;-73
2023/07/29 09:02:21;;;;;;;3.67;1.45;;;;;;;-148.88;89.91;-17125.47;5014462;28;20097;-73
2023/07/29 09:04:47;;;;;;;3.65;1.70;;;;;;;-148.88;88.19;-17125.47;5014498;28;20548;-73
2023/07/29 09:07:12;;;;;;;2.03;1.20;;;;;;;-148.88;83.56;-17125.47;5012851;28;20497;-73
2023/07/29 09:09:38;;;;;;;3.15;1.35;;;;;;;-148.88;84.08;-17125.47;5014100;28;20033;-73
2023/07/29 09:12:06;;;;;;;2.63;1.20;;;;;;;-148.88;85.01;-17125.47;5014156;28;20057;-73
2023/07/29 09:14:31;;;;;;;1.60;1.10;;;;;;;-148.88;85.66;-17125.47;5014048;28;20034;-72
2023/07/29 09:16:56;;;;;;;3.22;1.20;;;;;;;-148.88;84.70;-17125.47;5014049;28;20084;-73
2023/07/29 09:19:26;;;;;;;2.35;1.10;;;;;;;-148.88;84.06;-17125.47;5014213;28;20025;-72
2023/07/29 09:21:51;;;;;;;3.22;1.40;;;;;;;-148.88;85.64;-17125.47;5014253;28;20453;-72
2023/07/29 09:24:18;;;;;;;1.90;1.30;;;;;;;-148.88;84.01;-17125.47;5013883;28;20493;-72
2023/07/29 09:26:53;;;;;;;1.70;1.10;;;;;;;-148.88;83.40;-17125.47;5012496;28;20113;-72
2023/07/29 09:29:23;;;;;;;1.67;0.90;;;;;;;-148.88;83.51;-17125.47;5014142;28;20018;-72
2023/07/29 09:31:49;;;;;;;2.13;1.30;;;;;;;-148.88;84.49;-17125.47;5013691;28;20029;-72
2023/07/29 09:34:16;;;;;;;1.63;0.98;;;;;;;-148.88;83.76;-17125.47;5014317;28;20026;-74
2023/07/29 09:36:42;;;;;;;1.80;0.90;;;;;;;-148.88;82.70;-17125.47;5013632;28;20026;-71
2023/07/29 09:39:12;;;;;;;1.83;1.08;;;;;;;-148.88;82.29;-17125.47;5013472;28;20030;-71
2023/07/29 09:41:37;;;;;;;1.70;1.00;;;;;;;-148.88;79.87;-17125.47;5012345;28;20068;-73
2023/07/29 09:44:04;;;;;;;3.28;0.88;;;;;;;-148.88;79.28;-17125.47;5013879;28;20365;-72
2023/07/29 09:46:37;;;;;;;1.77;0.80;;;;;;;-148.88;78.08;-17125.47;5013692;28;20384;-72
2023/07/29 09:49:07;;;;;;;2.45;1.00;;;;;;;-148.88;78.62;-17125.47;5012289;28;20075;-72
2023/07/29 09:51:38;;;;;;;1.83;0.95;;;;;;;-148.88;79.78;-17125.47;5013747;28;20045;-73
2023/07/29 09:54:03;;;;;;;2.97;0.98;;;;;;;-148.88;79.26;-17125.47;5013466;28;20110;-74
2023/07/29 09:56:29;;;;;;;2.10;0.77;;;;;;;-148.88;78.37;-17125.47;5013363;28;20026;-73
2023/07/29 09:58:57;;;;;;;2.67;1.10;;;;;;;-148.88;79.99;-17125.47;5013194;28;20060;-74
2023/07/29 10:01:24;;;;;;;1.70;1.00;;;;;;;-148.88;77.85;-17125.47;5013176;28;20493;-72
2023/07/29 10:03:49;;;;;;;1.52;0.82;;;;;;;-148.88;76.23;-17125.47;5013268;28;20033;-71
2023/07/29 10:06:15;;;;;;;1.45;0.85;;;;;;;-148.88;75.85;-17125.47;5013172;28;20026;-72
2023/07/29 10:08:42;;;;;;;2.05;0.80;;;;;;;-148.88;75.55;-17125.47;5012018;28;20013;-72
2023/07/29 10:11:09;;;;;;;1.52;0.70;;;;;;;-148.88;76.63;-17125.47;5013228;28;20108;-72
2023/07/29 10:13:37;;;;;;;1.67;0.80;;;;;;;-148.88;76.69;-17125.47;5013221;28;20033;-72
2023/07/29 10:16:03;;;;;;;1.75;0.70;;;;;;;-148.88;73.43;-17125.47;5013117;28;20109;-72
2023/07/29 10:18:30;;;;;;;1.20;0.80;;;;;;;-148.88;73.73;-17125.47;5012985;28;20030;-72
2023/07/29 10:20:57;;;;;;;1.63;0.70;;;;;;;-148.88;77.14;-17125.47;5013123;28;20097;-73
2023/07/29 10:23:25;;;;;;;2.35;0.77;;;;;;;-148.88;75.75;-17125.47;5013042;28;20117;-72
2023/07/29 10:26:01;;;;;;;1.30;0.80;;;;;;;-148.88;74.87;-17125.47;5013302;28;20424;-72
2023/07/29 10:28:29;;;;;;;3.65;0.90;;;;;;;-148.88;75.29;-17125.47;5012937;28;20071;-72
2023/07/29 10:30:56;;;;;;;1.58;0.85;;;;;;;-148.88;74.59;-17125.47;5013040;28;20036;-72
2023/07/29 10:33:21;;;;;;;1.88;0.90;;;;;;;-148.88;71.67;-17125.47;5012935;28;20484;-72
2023/07/29 10:35:47;;;;;;;2.00;1.00;;;;;;;-148.88;72.36;-17125.47;5012935;28;20041;-72
2023/07/29 10:38:13;;;;;;;1.80;0.80;;;;;;;-148.88;71.33;-17125.47;5012742;28;20392;-72
2023/07/29 10:40:55;;;;;;;1.60;0.80;;;;;;;-148.88;73.04;-17125.47;5012888;28;20034;-72
2023/07/29 10:43:25;;;;;;;1.55;0.93;;;;;;;-148.88;70.71;-17125.47;5013232;28;20022;-72
2023/07/29 10:45:50;;;;;;;1.67;0.88;;;;;;;-148.88;71.79;-17125.47;5012937;28;20485;-72
2023/07/29 10:48:37;;;;;;;1.38;0.80;;;;;;;-148.88;70.21;-17125.47;5012807;28;20029;-72
2023/07/29 10:51:37;;;;;;;2.20;0.90;;;;;;;-148.88;72.27;-17125.47;5012874;28;20397;-72
2023/07/29 10:54:03;;;;;;;1.40;0.80;;;;;;;-148.88;71.88;-17125.47;5012863;28;20057;-72
2023/07/29 10:56:33;;;;;;;1.23;0.65;;;;;;;-148.88;67.33;-17125.47;5012695;28;20060;-71
2023/07/29 10:59:22;;;;;;;1.75;0.95;;;;;;;-148.88;70.42;-17125.47;5012480;28;20034;-72
2023/07/29 11:01:51;;;;;;;1.20;0.70;;;;;;;-148.88;67.84;-17125.47;5011808;28;20033;-72
2023/07/29 11:04:20;;;;;;;1.70;0.75;;;;;;;-148.88;66.50;-17125.47;5012765;28;20033;-72
2023/07/29 11:07:04;;;;;;;1.70;0.80;;;;;;;-148.88;67.79;-17125.47;5012601;28;20025;-72